Hlavní strana
METAR-TAF:

METAR-TAF

Letiště :

Chartúm, Súdán

zeměpisná šířka: 15-36N, zeměpisná délka: 032-33E, výška: 382 m

Aktuální stav počasí

Zpráva byla vytvořena před 22 minutami, v 06:30 UTC
Severní vítr 15 kt
Teplota 23°C
Vlhkost vzduchu 33%
Tlak 1015 hPa
Viditelnost 10 km a více
Žádná oblačnost pod 1500 m, nevyskytují se cumulonimby.

METAR: HSSS 240630Z 01015KT CAVOK 23/06 Q1015 NOSIG

Čas: 08:52 (06:52 UTC)

Předpověď počasí

Zpráva byla vytvořena před 1 hodinou a 52 minutami, v 05:00 UTC
Předpověď platná od 24 v 06 UTC do 25 v 12 UTC
Severoseverovýchodní vítr 12 kt s nárazy do 22 kt
Viditelnost: 6000 m

TAF: HSSS 240500Z 2406/2512 02012G22KT 6000 NSC

Stav a předpovědi počasí z více než 4 000 letišť (zprávy METAR a TAF).

Červené a žluté tečky na mapě představují dostupné meteorologické stanice.

Když kurzor umístíte na tečku, zobrazí se název stanice.

Pak kliknutím zobrazíte stav a předpověď počasí.

Chcete-li změnit mapu, kliknutím na zelené tlačítko se znaménkem +mapu přiblížíte, kliknutím na zelené tlačítko se znaménkem – mapu oddálíte a kliknutím na zelené šipky přejdete na sousední mapy.


METAR-TAF: